createdAt,value
2018-09-24T00:02:05.680Z,9.30
2018-09-24T00:04:34.206Z,9.20
2018-09-24T00:07:02.815Z,9.20
2018-09-24T00:09:31.401Z,9.10
2018-09-24T00:11:59.947Z,9.00
2018-09-24T00:14:28.494Z,8.80
2018-09-24T00:16:57.026Z,8.70
2018-09-24T00:19:25.578Z,8.60
2018-09-24T00:21:54.104Z,8.50
2018-09-24T00:24:22.703Z,8.40
2018-09-24T00:26:51.255Z,8.40
2018-09-24T00:29:19.788Z,8.30
2018-09-24T00:31:48.339Z,8.30
2018-09-24T00:34:16.879Z,8.20
2018-09-24T00:36:45.427Z,8.10
2018-09-24T00:39:13.953Z,8.10
2018-09-24T00:41:42.601Z,8.10
2018-09-24T00:44:11.151Z,8.10
2018-09-24T00:46:39.764Z,8.00
2018-09-24T00:49:08.307Z,8.00
2018-09-24T00:51:36.844Z,8.00
2018-09-24T00:54:05.581Z,8.00
2018-09-24T00:56:35.342Z,7.90
2018-09-24T00:59:03.976Z,7.90
2018-09-24T01:01:32.533Z,7.80
2018-09-24T01:04:01.115Z,7.80
2018-09-24T01:06:29.770Z,7.80
2018-09-24T01:08:58.323Z,7.70
2018-09-24T01:11:26.866Z,7.70
2018-09-24T01:13:55.382Z,7.70
2018-09-24T01:16:23.923Z,7.70
2018-09-24T01:18:52.473Z,7.70
2018-09-24T01:21:21.056Z,7.70
2018-09-24T01:23:49.563Z,7.70
2018-09-24T01:26:18.124Z,7.70
2018-09-24T01:28:46.722Z,7.70
2018-09-24T01:31:15.255Z,7.70
2018-09-24T01:33:43.852Z,7.60
2018-09-24T01:36:12.470Z,7.70
2018-09-24T01:38:41.096Z,7.80
2018-09-24T01:41:09.739Z,7.80
2018-09-24T01:43:38.330Z,7.70
2018-09-24T01:46:06.950Z,7.70
2018-09-24T01:48:35.514Z,7.70
2018-09-24T01:51:04.139Z,7.70
2018-09-24T01:53:32.698Z,7.70
2018-09-24T01:56:01.221Z,7.70
2018-09-24T01:58:29.978Z,7.70
2018-09-24T02:00:58.572Z,7.70
2018-09-24T02:03:32.108Z,7.80
2018-09-24T02:06:00.953Z,7.80
2018-09-24T02:08:29.622Z,8.00
2018-09-24T02:10:58.164Z,8.00
2018-09-24T02:13:26.759Z,8.10
2018-09-24T02:15:55.346Z,8.20
2018-09-24T02:18:23.960Z,8.20
2018-09-24T02:20:52.550Z,8.10
2018-09-24T02:23:21.165Z,8.10
2018-09-24T02:25:49.762Z,8.10
2018-09-24T02:28:18.552Z,8.10
2018-09-24T02:30:47.161Z,8.10
2018-09-24T02:33:15.761Z,8.00
2018-09-24T02:35:48.884Z,8.00
2018-09-24T02:38:18.397Z,7.90
2018-09-24T02:40:46.959Z,7.80
2018-09-24T02:43:21.734Z,7.80
2018-09-24T02:45:50.618Z,7.80
2018-09-24T02:48:19.151Z,7.80
2018-09-24T02:50:47.740Z,7.80
2018-09-24T02:53:16.366Z,7.80
2018-09-24T02:55:44.939Z,7.80
2018-09-24T02:58:17.470Z,7.80
2018-09-24T03:00:46.034Z,7.80
2018-09-24T03:03:14.578Z,7.70
2018-09-24T03:05:43.804Z,7.70
2018-09-24T03:08:13.484Z,7.70
2018-09-24T03:10:42.443Z,7.60
2018-09-24T03:13:10.975Z,7.60
2018-09-24T03:15:41.350Z,7.60
2018-09-24T03:18:12.803Z,7.60
2018-09-24T03:20:42.639Z,7.50
2018-09-24T03:23:11.208Z,7.40
2018-09-24T03:25:40.210Z,7.40
2018-09-24T03:28:08.798Z,7.40
2018-09-24T03:30:40.630Z,7.30
2018-09-24T03:33:09.217Z,7.20
2018-09-24T03:35:37.750Z,7.20
2018-09-24T03:38:06.314Z,7.30
2018-09-24T03:40:34.841Z,7.20
2018-09-24T03:43:03.401Z,7.10
2018-09-24T03:45:31.945Z,7.10
2018-09-24T03:48:00.546Z,7.00
2018-09-24T03:50:29.075Z,7.00
2018-09-24T03:52:57.623Z,7.00
2018-09-24T03:55:26.166Z,7.00
2018-09-24T03:57:54.720Z,7.00
2018-09-24T04:00:23.244Z,7.00
2018-09-24T04:02:51.777Z,6.90
2018-09-24T04:05:25.675Z,6.90
2018-09-24T04:07:59.369Z,6.80
2018-09-24T04:10:33.097Z,6.80
2018-09-24T04:13:06.709Z,6.80
2018-09-24T04:15:40.635Z,6.80
2018-09-24T04:18:14.510Z,6.70
2018-09-24T04:20:48.365Z,6.70
2018-09-24T04:23:22.171Z,6.60
2018-09-24T04:25:55.929Z,6.60
2018-09-24T04:28:29.861Z,6.60
2018-09-24T04:31:03.679Z,6.60
2018-09-24T04:33:37.496Z,6.70
2018-09-24T04:36:11.463Z,6.70
2018-09-24T04:38:45.313Z,6.70
2018-09-24T04:41:19.117Z,6.70
2018-09-24T04:43:53.087Z,6.70
2018-09-24T04:46:27.000Z,6.60
2018-09-24T04:49:00.914Z,6.60
2018-09-24T04:51:34.689Z,6.50
2018-09-24T04:54:08.576Z,6.60
2018-09-24T04:56:42.580Z,6.70
2018-09-24T04:59:16.533Z,6.60
2018-09-24T05:01:50.373Z,6.70
2018-09-24T05:04:24.146Z,6.60
2018-09-24T05:06:58.241Z,6.60
2018-09-24T05:09:32.130Z,6.70
2018-09-24T05:12:06.039Z,6.70
2018-09-24T05:14:39.933Z,6.60
2018-09-24T05:17:13.838Z,6.60
2018-09-24T05:19:47.911Z,6.60
2018-09-24T05:22:21.893Z,6.50
2018-09-24T05:24:55.599Z,6.50
2018-09-24T05:27:29.532Z,6.60
2018-09-24T05:30:03.524Z,6.60
2018-09-24T05:32:37.315Z,6.50
2018-09-24T05:35:11.227Z,6.50
2018-09-24T05:37:44.976Z,6.60
2018-09-24T05:40:18.970Z,6.60
2018-09-24T05:42:52.907Z,6.70
2018-09-24T05:45:26.853Z,6.70
2018-09-24T05:48:00.870Z,6.80
2018-09-24T05:50:34.796Z,6.80
2018-09-24T05:53:08.509Z,6.90
2018-09-24T05:55:42.364Z,7.00
2018-09-24T05:58:16.187Z,7.10
2018-09-24T06:00:50.048Z,7.10
2018-09-24T06:03:23.793Z,7.20
2018-09-24T06:05:57.759Z,7.30
2018-09-24T06:08:31.608Z,7.40
2018-09-24T06:11:05.452Z,7.50
2018-09-24T06:13:39.366Z,7.60
2018-09-24T06:16:13.404Z,7.70
2018-09-24T06:18:47.219Z,7.80
2018-09-24T06:21:21.056Z,7.80
2018-09-24T06:23:54.955Z,8.00
2018-09-24T06:26:28.890Z,8.10
2018-09-24T06:29:02.669Z,8.20
2018-09-24T06:31:36.499Z,8.30
2018-09-24T06:34:10.341Z,8.40
2018-09-24T06:36:44.167Z,8.50
2018-09-24T06:39:18.004Z,8.70
2018-09-24T06:41:51.955Z,8.80
2018-09-24T06:44:25.733Z,9.00
2018-09-24T06:46:59.644Z,9.10
2018-09-24T06:49:33.479Z,9.20
2018-09-24T06:52:07.337Z,9.40
2018-09-24T06:54:41.239Z,9.50
2018-09-24T06:57:15.119Z,9.80
2018-09-24T06:59:49.106Z,10.20
2018-09-24T07:02:22.929Z,11.30
2018-09-24T07:04:56.929Z,14.30
2018-09-24T07:07:30.936Z,16.30
2018-09-24T07:10:04.759Z,17.30
2018-09-24T07:12:38.705Z,18.40
2018-09-24T07:15:12.694Z,19.60
2018-09-24T07:17:46.594Z,21.10
2018-09-24T07:20:20.406Z,21.40
2018-09-24T07:22:54.288Z,20.90
2018-09-24T07:25:28.213Z,21.50
2018-09-24T07:28:02.279Z,21.40
2018-09-24T07:30:36.089Z,21.30
2018-09-24T07:33:09.881Z,21.40
2018-09-24T07:35:43.673Z,21.30
2018-09-24T07:38:17.642Z,21.40
2018-09-24T07:40:51.545Z,21.50
2018-09-24T07:43:25.597Z,22.20
2018-09-24T07:45:59.485Z,21.80
2018-09-24T07:48:33.471Z,22.90
2018-09-24T07:51:07.389Z,23.30
2018-09-24T07:53:41.374Z,23.90
2018-09-24T07:56:15.503Z,23.30
2018-09-24T07:58:49.537Z,23.80
2018-09-24T08:01:23.438Z,23.80
2018-09-24T08:03:57.431Z,24.00
2018-09-24T08:06:31.345Z,22.70
2018-09-24T08:09:05.457Z,22.90
2018-09-24T08:11:39.510Z,23.30
2018-09-24T08:14:13.623Z,21.90
2018-09-24T08:16:47.583Z,21.80
2018-09-24T08:19:21.548Z,21.50
2018-09-24T08:21:55.761Z,21.20
2018-09-24T08:24:29.884Z,21.50
2018-09-24T08:27:03.910Z,22.50
2018-09-24T08:29:38.173Z,22.90
2018-09-24T08:32:12.267Z,23.40
2018-09-24T08:34:46.203Z,22.10
2018-09-24T08:37:20.159Z,20.00
2018-09-24T08:39:54.204Z,18.40
2018-09-24T08:42:27.994Z,17.70
2018-09-24T08:45:01.955Z,16.90
2018-09-24T08:47:35.818Z,15.90
2018-09-24T08:50:09.800Z,15.00
2018-09-24T08:52:43.628Z,14.60
2018-09-24T08:55:17.627Z,15.90
2018-09-24T08:57:51.585Z,17.90
2018-09-24T09:00:25.520Z,19.80
2018-09-24T09:02:59.401Z,21.30
2018-09-24T09:05:33.404Z,21.70
2018-09-24T09:08:07.406Z,22.00
2018-09-24T09:10:41.430Z,22.20
2018-09-24T09:13:15.396Z,21.50
2018-09-24T09:15:49.336Z,21.80
2018-09-24T09:18:23.238Z,21.40
2018-09-24T09:20:57.490Z,22.10
2018-09-24T09:23:31.483Z,22.00
2018-09-24T09:26:05.496Z,21.70
2018-09-24T09:28:39.528Z,22.70
2018-09-24T09:31:13.833Z,23.00
2018-09-24T09:33:47.881Z,23.60
2018-09-24T09:36:21.847Z,23.50
2018-09-24T09:38:56.085Z,23.30
2018-09-24T09:41:30.377Z,22.80
2018-09-24T09:44:04.593Z,21.20
2018-09-24T09:46:38.639Z,21.10
2018-09-24T09:49:12.727Z,20.90
2018-09-24T09:51:46.641Z,19.70
2018-09-24T09:54:20.595Z,18.20
2018-09-24T09:56:54.426Z,17.40
2018-09-24T09:59:28.427Z,17.80
2018-09-24T10:02:02.173Z,17.80
2018-09-24T10:04:36.203Z,17.70
2018-09-24T10:07:09.967Z,17.30
2018-09-24T10:09:43.864Z,16.80
2018-09-24T10:12:17.772Z,16.40
2018-09-24T10:14:51.531Z,15.90
2018-09-24T10:17:25.282Z,15.40
2018-09-24T10:19:59.215Z,14.80
2018-09-24T10:22:33.194Z,14.40
2018-09-24T10:25:06.944Z,14.20
2018-09-24T10:27:40.804Z,14.30
2018-09-24T10:30:14.668Z,14.60
2018-09-24T10:32:48.607Z,14.60
2018-09-24T10:35:22.556Z,14.70
2018-09-24T10:37:56.631Z,14.90
2018-09-24T10:40:30.498Z,14.90
2018-09-24T10:43:04.246Z,14.90
2018-09-24T10:45:38.164Z,14.70
2018-09-24T10:48:12.230Z,14.40
2018-09-24T10:50:46.126Z,14.20
2018-09-24T10:53:20.034Z,14.10
2018-09-24T10:55:53.809Z,14.40
2018-09-24T10:58:27.682Z,14.50
2018-09-24T11:01:01.371Z,15.00
2018-09-24T11:03:35.126Z,15.30
2018-09-24T11:06:08.924Z,15.60
2018-09-24T11:08:42.651Z,15.30
2018-09-24T11:11:16.345Z,15.30
2018-09-24T11:13:50.241Z,15.50
2018-09-24T11:16:24.129Z,15.30
2018-09-24T11:18:57.825Z,15.40
2018-09-24T11:21:31.452Z,15.60
2018-09-24T11:24:05.250Z,16.00
2018-09-24T11:26:39.052Z,16.30
2018-09-24T11:29:12.944Z,16.20
2018-09-24T11:31:46.807Z,16.60
2018-09-24T11:34:20.634Z,16.80
2018-09-24T11:36:54.460Z,16.70
2018-09-24T11:39:28.233Z,16.80
2018-09-24T11:42:02.120Z,16.60
2018-09-24T11:44:36.008Z,16.70
2018-09-24T11:47:09.898Z,16.90
2018-09-24T11:49:43.651Z,16.90
2018-09-24T11:52:17.285Z,16.80
2018-09-24T11:54:51.131Z,16.70
2018-09-24T11:57:24.917Z,16.50
2018-09-24T11:59:58.769Z,16.50
2018-09-24T12:02:32.543Z,16.60
2018-09-24T12:05:06.420Z,16.50
2018-09-24T12:07:40.186Z,16.40
2018-09-24T12:10:14.159Z,16.40
2018-09-24T12:12:48.045Z,16.90
2018-09-24T12:15:21.876Z,17.10
2018-09-24T12:17:55.681Z,17.20
2018-09-24T12:20:29.662Z,17.10
2018-09-24T12:23:03.703Z,16.70
2018-09-24T12:25:37.471Z,16.50
2018-09-24T12:28:11.639Z,16.20
2018-09-24T12:30:45.508Z,15.80
2018-09-24T12:33:19.536Z,15.60
2018-09-24T12:35:53.407Z,15.60
2018-09-24T12:38:27.331Z,15.60
2018-09-24T12:41:01.319Z,15.90
2018-09-24T12:43:35.233Z,15.80
2018-09-24T12:46:09.059Z,15.70
2018-09-24T12:48:42.748Z,15.70
2018-09-24T12:51:16.772Z,15.70
2018-09-24T12:53:50.928Z,15.60
2018-09-24T12:56:24.975Z,15.60
2018-09-24T12:58:59.737Z,15.50
2018-09-24T13:01:34.035Z,15.30
2018-09-24T13:04:07.986Z,15.30
2018-09-24T13:06:42.020Z,15.20
2018-09-24T13:09:15.814Z,15.10
2018-09-24T13:11:49.807Z,14.90
2018-09-24T13:14:24.542Z,14.70
2018-09-24T13:16:58.203Z,14.70
2018-09-24T13:19:32.212Z,14.80
2018-09-24T13:22:06.148Z,14.70
2018-09-24T13:24:40.424Z,14.50
2018-09-24T13:27:14.215Z,14.50
2018-09-24T13:29:48.519Z,14.60
2018-09-24T13:32:22.411Z,14.50
2018-09-24T13:34:56.259Z,14.50
2018-09-24T13:37:30.286Z,14.60
2018-09-24T13:40:04.111Z,14.80
2018-09-24T13:42:38.031Z,15.10
2018-09-24T13:45:11.773Z,15.40
2018-09-24T13:47:45.583Z,15.70
2018-09-24T13:50:19.323Z,15.60
2018-09-24T13:52:53.075Z,15.40
2018-09-24T13:55:26.983Z,15.30
2018-09-24T13:58:00.760Z,15.10
2018-09-24T14:00:34.760Z,14.90
2018-09-24T14:03:08.721Z,14.70
2018-09-24T14:05:42.525Z,14.40
2018-09-24T14:08:16.304Z,14.20
2018-09-24T14:10:50.049Z,14.00
2018-09-24T14:13:23.867Z,13.90
2018-09-24T14:15:57.800Z,13.80
2018-09-24T14:18:31.578Z,13.80
2018-09-24T14:21:05.377Z,13.80
2018-09-24T14:23:39.432Z,13.80
2018-09-24T14:26:13.475Z,13.70
2018-09-24T14:28:47.272Z,13.70
2018-09-24T14:31:21.052Z,13.90
2018-09-24T14:33:54.910Z,14.00
2018-09-24T14:36:28.844Z,14.00
2018-09-24T14:39:03.229Z,14.10
2018-09-24T14:41:37.170Z,14.00
2018-09-24T14:44:11.064Z,14.00
2018-09-24T14:46:45.029Z,14.10
2018-09-24T14:49:19.041Z,14.00
2018-09-24T14:51:52.967Z,14.10
2018-09-24T14:54:26.913Z,14.10
2018-09-24T14:57:00.824Z,14.10
2018-09-24T14:59:34.612Z,14.20
2018-09-24T15:02:08.554Z,14.30
2018-09-24T15:04:42.559Z,14.30
2018-09-24T15:07:16.246Z,14.40
2018-09-24T15:09:50.126Z,14.40
2018-09-24T15:12:23.932Z,14.30
2018-09-24T15:14:57.806Z,14.40
2018-09-24T15:17:31.559Z,14.50
2018-09-24T15:20:05.396Z,14.50
2018-09-24T15:22:39.290Z,14.30
2018-09-24T15:25:13.150Z,14.20
2018-09-24T15:27:46.983Z,14.10
2018-09-24T15:30:20.833Z,14.10
2018-09-24T15:32:54.954Z,14.00
2018-09-24T15:35:28.941Z,14.10
2018-09-24T15:38:02.737Z,14.10
2018-09-24T15:40:36.706Z,14.10
2018-09-24T15:43:10.804Z,14.20
2018-09-24T15:45:44.919Z,14.50
2018-09-24T15:48:18.748Z,14.50
2018-09-24T15:50:52.517Z,14.70
2018-09-24T15:53:26.411Z,14.80
2018-09-24T15:56:00.292Z,14.70
2018-09-24T15:58:34.331Z,14.70
2018-09-24T16:01:08.137Z,14.60
2018-09-24T16:03:42.099Z,14.40
2018-09-24T16:06:16.208Z,14.20
2018-09-24T16:08:50.040Z,14.20
2018-09-24T16:11:23.954Z,14.00
2018-09-24T16:13:57.944Z,13.90
2018-09-24T16:16:33.262Z,13.70
2018-09-24T16:19:07.052Z,13.60
2018-09-24T16:21:40.708Z,13.50
2018-09-24T16:24:14.502Z,13.50
2018-09-24T16:26:48.368Z,13.40
2018-09-24T16:29:22.228Z,13.30
2018-09-24T16:31:56.223Z,13.20
2018-09-24T16:34:30.026Z,13.10
2018-09-24T16:37:04.050Z,13.00
2018-09-24T16:39:37.932Z,12.80
2018-09-24T16:42:11.874Z,12.70
2018-09-24T16:44:45.758Z,12.50
2018-09-24T16:47:19.525Z,12.40
2018-09-24T16:49:53.438Z,12.30
2018-09-24T16:52:27.215Z,12.20
2018-09-24T16:55:01.104Z,12.00
2018-09-24T16:57:35.145Z,11.90
2018-09-24T17:00:08.925Z,11.80
2018-09-24T17:02:42.752Z,11.70
2018-09-24T17:05:16.634Z,11.60
2018-09-24T17:07:50.560Z,11.60
2018-09-24T17:10:24.382Z,11.50
2018-09-24T17:12:58.151Z,11.50
2018-09-24T17:15:32.079Z,11.50
2018-09-24T17:18:05.842Z,11.40
2018-09-24T17:20:39.622Z,11.40
2018-09-24T17:23:13.309Z,11.30
2018-09-24T17:25:47.094Z,11.20
2018-09-24T17:28:20.944Z,11.10
2018-09-24T17:30:54.860Z,11.10
2018-09-24T17:33:28.798Z,11.00
2018-09-24T17:36:02.911Z,11.10
2018-09-24T17:38:36.932Z,11.10
2018-09-24T17:41:10.754Z,11.10
2018-09-24T17:43:44.951Z,11.10
2018-09-24T17:46:18.847Z,11.00
2018-09-24T17:48:52.599Z,11.00
2018-09-24T17:51:26.568Z,11.10
2018-09-24T17:54:00.587Z,11.20
2018-09-24T17:56:34.239Z,11.20
2018-09-24T17:59:08.378Z,11.20
2018-09-24T18:01:42.275Z,11.10
2018-09-24T18:04:16.243Z,11.10
2018-09-24T18:06:50.128Z,11.10
2018-09-24T18:09:23.963Z,11.00
2018-09-24T18:11:57.907Z,10.90
2018-09-24T18:14:31.752Z,10.70
2018-09-24T18:17:05.522Z,10.60
2018-09-24T18:19:39.347Z,10.50
2018-09-24T18:22:13.279Z,10.50
2018-09-24T18:24:47.079Z,10.40
2018-09-24T18:27:20.980Z,10.30
2018-09-24T18:29:54.712Z,10.30
2018-09-24T18:32:29.255Z,10.20
2018-09-24T18:35:03.073Z,10.10
2018-09-24T18:37:37.108Z,10.00
2018-09-24T18:40:10.887Z,10.00
2018-09-24T18:42:44.705Z,9.90
2018-09-24T18:45:18.769Z,9.90
2018-09-24T18:47:59.703Z,9.90
2018-09-24T18:50:33.694Z,9.90
2018-09-24T18:53:07.625Z,9.80
2018-09-24T18:55:41.483Z,9.70
2018-09-24T18:58:15.346Z,9.60
2018-09-24T19:00:49.305Z,9.50
2018-09-24T19:03:23.114Z,9.30
2018-09-24T19:05:57.010Z,9.20
2018-09-24T19:08:30.926Z,9.10
2018-09-24T19:11:04.742Z,9.00
2018-09-24T19:13:38.572Z,8.80
2018-09-24T19:16:12.844Z,8.80
2018-09-24T19:18:46.759Z,8.70
2018-09-24T19:21:20.678Z,8.70
2018-09-24T19:23:54.530Z,8.60
2018-09-24T19:26:28.383Z,8.50
2018-09-24T19:29:02.262Z,8.50
2018-09-24T19:31:36.330Z,8.50
2018-09-24T19:34:10.208Z,8.40
2018-09-24T19:36:44.013Z,8.30
2018-09-24T19:39:17.849Z,8.20
2018-09-24T19:41:51.770Z,8.20
2018-09-24T19:44:25.545Z,8.10
2018-09-24T19:46:59.431Z,8.10
2018-09-24T19:49:33.092Z,8.00
2018-09-24T19:52:06.955Z,8.00
2018-09-24T19:54:40.851Z,8.00
2018-09-24T19:57:14.676Z,8.00
2018-09-24T19:59:48.516Z,7.90
2018-09-24T20:02:22.423Z,8.00
2018-09-24T20:04:56.191Z,8.00
2018-09-24T20:07:30.016Z,8.00
2018-09-24T20:10:03.991Z,8.00
2018-09-24T20:12:37.966Z,8.00
2018-09-24T20:15:12.458Z,8.10
2018-09-24T20:17:46.392Z,8.10
2018-09-24T20:40:17.268Z,7.80
2018-09-24T20:42:51.099Z,7.70
2018-09-24T20:45:24.971Z,7.70
2018-09-24T20:47:58.831Z,7.60
2018-09-24T20:50:32.729Z,7.50
2018-09-24T20:53:06.477Z,7.40
2018-09-24T20:55:40.345Z,7.40
2018-09-24T20:58:14.266Z,7.40
2018-09-24T21:00:48.175Z,7.40
2018-09-24T21:03:22.071Z,7.40
2018-09-24T21:05:55.879Z,7.50
2018-09-24T21:08:29.661Z,7.70
2018-09-24T21:11:03.414Z,7.80
2018-09-24T21:13:37.222Z,8.10
2018-09-24T21:16:11.611Z,8.30
2018-09-24T21:18:45.390Z,8.40
2018-09-24T21:21:19.296Z,8.60
2018-09-24T21:23:53.104Z,8.70
2018-09-24T21:26:27.006Z,8.80
2018-09-24T21:29:00.770Z,8.90
2018-09-24T21:31:34.675Z,9.00
2018-09-24T21:34:08.706Z,9.10
2018-09-24T21:36:42.324Z,9.10
2018-09-24T21:39:16.262Z,9.20
2018-09-24T21:41:50.127Z,9.20
2018-09-24T21:44:30.502Z,9.30
2018-09-24T21:47:04.210Z,9.40
2018-09-24T21:49:37.921Z,9.40
2018-09-24T21:52:11.879Z,9.40
2018-09-24T21:54:45.792Z,9.40
2018-09-24T21:57:19.611Z,9.30
2018-09-24T21:59:53.309Z,9.20
2018-09-24T22:02:27.035Z,9.20
2018-09-24T22:05:00.795Z,9.20
2018-09-24T22:07:34.472Z,9.10
2018-09-24T22:10:08.215Z,9.00
2018-09-24T22:12:42.078Z,9.00
2018-09-24T22:15:15.891Z,8.90
2018-09-24T22:17:49.865Z,8.90
2018-09-24T22:20:23.749Z,8.90
2018-09-24T22:22:57.530Z,9.00
2018-09-24T22:25:31.435Z,9.00
2018-09-24T22:28:05.186Z,9.00
2018-09-24T22:30:39.055Z,9.00
2018-09-24T22:33:12.805Z,9.00
2018-09-24T22:35:46.694Z,8.90
2018-09-24T22:38:20.459Z,8.90
2018-09-24T22:40:54.353Z,8.80
2018-09-24T22:43:28.072Z,8.70
2018-09-24T22:46:01.864Z,8.50
2018-09-24T22:48:35.597Z,8.40
2018-09-24T22:51:09.558Z,8.30
2018-09-24T22:53:43.368Z,8.20
2018-09-24T22:56:17.146Z,8.20
2018-09-24T22:58:51.052Z,8.10
2018-09-24T23:01:24.895Z,8.10
2018-09-24T23:03:58.666Z,8.10
2018-09-24T23:06:32.438Z,8.00
2018-09-24T23:09:06.187Z,7.90
2018-09-24T23:11:39.939Z,7.80
2018-09-24T23:14:13.862Z,7.80
2018-09-24T23:16:47.671Z,7.70
2018-09-24T23:19:21.428Z,7.60
2018-09-24T23:21:55.215Z,7.50
2018-09-24T23:24:28.932Z,7.50
2018-09-24T23:27:02.789Z,7.40
2018-09-24T23:29:36.640Z,7.30
2018-09-24T23:32:10.626Z,7.20
2018-09-24T23:34:44.408Z,7.20
2018-09-24T23:37:18.236Z,7.10
2018-09-24T23:39:52.010Z,7.10
2018-09-24T23:42:25.739Z,7.10
2018-09-24T23:44:59.546Z,7.00
2018-09-24T23:47:33.290Z,7.00
2018-09-24T23:50:07.054Z,7.00
2018-09-24T23:52:40.995Z,7.00
2018-09-24T23:55:14.860Z,7.10
2018-09-24T23:57:48.666Z,7.00
